createdAt,value
2018-07-23T00:00:28.276Z,2.50
2018-07-23T00:02:57.635Z,2.80
2018-07-23T00:05:26.956Z,2.57
2018-07-23T00:07:56.292Z,2.50
2018-07-23T00:10:25.615Z,2.43
2018-07-23T00:12:55.206Z,2.77
2018-07-23T00:15:24.507Z,2.70
2018-07-23T00:17:53.811Z,2.87
2018-07-23T00:20:23.132Z,2.63
2018-07-23T00:22:52.471Z,2.90
2018-07-23T00:25:21.806Z,3.00
2018-07-23T00:27:51.108Z,2.53
2018-07-23T00:30:20.445Z,2.53
2018-07-23T00:32:49.763Z,2.50
2018-07-23T00:35:19.062Z,2.63
2018-07-23T00:37:48.373Z,2.60
2018-07-23T00:40:17.671Z,2.70
2018-07-23T00:42:46.995Z,2.30
2018-07-23T00:45:16.276Z,2.60
2018-07-23T00:47:45.566Z,2.40
2018-07-23T00:50:14.908Z,2.70
2018-07-23T00:52:44.272Z,2.50
2018-07-23T00:55:13.616Z,2.70
2018-07-23T00:57:43.290Z,2.47
2018-07-23T01:00:12.645Z,2.80
2018-07-23T01:02:42.038Z,2.80
2018-07-23T01:05:18.094Z,2.80
2018-07-23T01:07:47.449Z,2.80
2018-07-23T01:10:16.789Z,3.03
2018-07-23T01:12:46.162Z,2.77
2018-07-23T01:15:15.536Z,2.80
2018-07-23T01:17:44.874Z,2.60
2018-07-23T01:20:14.198Z,2.60
2018-07-23T01:22:43.565Z,2.50
2018-07-23T01:25:12.981Z,2.60
2018-07-23T01:27:42.320Z,2.77
2018-07-23T01:30:11.360Z,3.20
2018-07-23T01:32:40.722Z,2.67
2018-07-23T01:35:10.104Z,2.67
2018-07-23T01:37:39.440Z,3.10
2018-07-23T01:40:08.823Z,2.77
2018-07-23T01:42:38.189Z,2.70
2018-07-23T01:45:07.564Z,2.80
2018-07-23T01:47:36.909Z,2.77
2018-07-23T01:50:06.482Z,2.77
2018-07-23T01:52:35.829Z,2.73
2018-07-23T01:55:05.310Z,2.70
2018-07-23T01:57:34.657Z,2.70
2018-07-23T02:00:04.709Z,2.50
2018-07-23T02:02:34.058Z,2.80
2018-07-23T02:05:03.425Z,2.77
2018-07-23T02:07:32.805Z,2.70
2018-07-23T02:10:02.179Z,2.93
2018-07-23T02:12:31.564Z,2.93
2018-07-23T02:15:00.964Z,2.80
2018-07-23T02:17:30.304Z,2.63
2018-07-23T02:19:59.692Z,2.90
2018-07-23T02:22:29.268Z,3.17
2018-07-23T02:24:58.355Z,3.37
2018-07-23T02:27:27.698Z,3.00
2018-07-23T02:29:57.024Z,3.00
2018-07-23T02:32:26.442Z,2.97
2018-07-23T02:34:55.825Z,2.90
2018-07-23T02:37:25.153Z,3.20
2018-07-23T02:39:54.489Z,2.87
2018-07-23T02:42:23.833Z,2.60
2018-07-23T02:44:53.230Z,3.30
2018-07-23T02:47:22.559Z,3.10
2018-07-23T02:49:51.877Z,2.97
2018-07-23T02:52:21.212Z,3.17
2018-07-23T02:54:50.593Z,2.60
2018-07-23T02:57:19.923Z,2.90
2018-07-23T02:59:49.269Z,2.70
2018-07-23T03:02:18.361Z,2.87
2018-07-23T03:04:47.469Z,2.80
2018-07-23T03:07:16.797Z,2.70
2018-07-23T03:09:46.130Z,3.20
2018-07-23T03:12:15.502Z,2.70
2018-07-23T03:14:45.030Z,2.90
2018-07-23T03:17:14.473Z,2.87
2018-07-23T03:19:43.858Z,2.60
2018-07-23T03:22:13.357Z,2.77
2018-07-23T03:24:42.737Z,3.00
2018-07-23T03:27:12.064Z,3.00
2018-07-23T03:29:41.404Z,2.70
2018-07-23T03:32:10.737Z,2.80
2018-07-23T03:34:40.108Z,3.00
2018-07-23T03:37:09.436Z,2.97
2018-07-23T03:39:38.772Z,2.70
2018-07-23T03:42:08.118Z,2.80
2018-07-23T03:44:37.489Z,2.80
2018-07-23T03:47:06.856Z,3.10
2018-07-23T03:49:36.210Z,2.97
2018-07-23T03:52:05.594Z,3.00
2018-07-23T03:54:34.980Z,3.20
2018-07-23T03:57:04.334Z,2.90
2018-07-23T03:59:33.648Z,3.10
2018-07-23T04:02:03.050Z,2.80
2018-07-23T04:04:32.417Z,2.80
2018-07-23T04:07:01.748Z,3.47
2018-07-23T04:09:31.141Z,2.90
2018-07-23T04:12:00.502Z,2.83
2018-07-23T04:14:30.193Z,2.83
2018-07-23T04:16:59.524Z,2.70
2018-07-23T04:19:29.201Z,3.00
2018-07-23T04:21:58.565Z,2.90
2018-07-23T04:24:34.380Z,3.07
2018-07-23T04:27:03.697Z,2.80
2018-07-23T04:29:33.066Z,3.50
2018-07-23T04:32:02.397Z,3.20
2018-07-23T04:34:31.782Z,3.03
2018-07-23T04:37:01.223Z,2.60
2018-07-23T04:39:30.556Z,3.40
2018-07-23T04:41:59.943Z,3.20
2018-07-23T04:44:29.309Z,2.70
2018-07-23T04:46:58.776Z,3.23
2018-07-23T04:49:28.127Z,2.80
2018-07-23T04:51:57.509Z,3.07
2018-07-23T04:54:26.877Z,2.97
2018-07-23T04:56:56.266Z,2.80
2018-07-23T04:59:25.300Z,3.27
2018-07-23T05:01:54.652Z,2.83
2018-07-23T05:04:24.054Z,3.50
2018-07-23T05:06:53.397Z,2.60
2018-07-23T05:09:22.727Z,3.10
2018-07-23T05:11:52.101Z,2.77
2018-07-23T05:14:21.486Z,3.03
2018-07-23T05:16:50.805Z,3.03
2018-07-23T05:19:20.129Z,3.00
2018-07-23T05:21:49.504Z,3.00
2018-07-23T05:24:18.950Z,3.00
2018-07-23T05:26:48.278Z,3.30
2018-07-23T05:29:17.621Z,3.33
2018-07-23T05:31:47.002Z,3.20
2018-07-23T05:34:16.443Z,2.87
2018-07-23T05:36:45.784Z,3.37
2018-07-23T05:39:15.179Z,3.00
2018-07-23T05:41:44.529Z,3.20
2018-07-23T05:44:13.913Z,3.23
2018-07-23T05:46:43.250Z,3.20
2018-07-23T05:49:12.582Z,3.17
2018-07-23T05:51:42.009Z,3.27
2018-07-23T05:54:11.406Z,3.37
2018-07-23T05:56:40.738Z,3.47
2018-07-23T05:59:10.106Z,3.20
2018-07-23T06:01:39.521Z,3.20
2018-07-23T06:04:08.917Z,3.37
2018-07-23T06:06:38.352Z,3.20
2018-07-23T06:09:09.746Z,3.20
2018-07-23T06:11:39.125Z,2.83
2018-07-23T06:14:08.480Z,3.20
2018-07-23T06:16:37.903Z,3.27
2018-07-23T06:19:07.253Z,3.27
2018-07-23T06:21:36.578Z,3.50
2018-07-23T06:24:06.408Z,2.80
2018-07-23T06:26:36.210Z,3.23
2018-07-23T06:29:05.671Z,3.30
2018-07-23T06:31:35.057Z,3.20
2018-07-23T06:34:04.462Z,2.97
2018-07-23T06:36:33.913Z,3.10
2018-07-23T06:39:03.365Z,3.30
2018-07-23T06:41:32.740Z,3.00
2018-07-23T06:44:02.130Z,3.23
2018-07-23T06:46:31.585Z,2.73
2018-07-23T06:49:00.970Z,3.30
2018-07-23T06:51:30.370Z,3.43
2018-07-23T06:53:59.780Z,3.03
2018-07-23T06:56:29.221Z,4.97
2018-07-23T06:58:58.601Z,4.07
2018-07-23T07:01:27.998Z,4.20
2018-07-23T07:03:57.529Z,5.03
2018-07-23T07:06:26.983Z,4.53
2018-07-23T07:08:56.246Z,5.03
2018-07-23T07:11:25.589Z,5.00
2018-07-23T07:13:55.045Z,5.00
2018-07-23T07:16:24.480Z,5.10
2018-07-23T07:18:53.906Z,5.23
2018-07-23T07:21:23.370Z,5.50
2018-07-23T07:23:52.744Z,5.50
2018-07-23T07:26:22.192Z,5.07
2018-07-23T07:28:51.532Z,4.97
2018-07-23T07:31:20.862Z,5.20
2018-07-23T07:33:50.220Z,5.07
2018-07-23T07:36:19.641Z,4.80
2018-07-23T07:38:49.078Z,5.17
2018-07-23T07:41:18.404Z,4.83
2018-07-23T07:43:47.783Z,5.03
2018-07-23T07:46:17.182Z,5.13
2018-07-23T07:48:46.510Z,4.77
2018-07-23T07:51:15.833Z,5.37
2018-07-23T07:53:45.208Z,4.37
2018-07-23T07:56:14.583Z,4.23
2018-07-23T07:58:43.966Z,4.37
2018-07-23T08:01:13.323Z,4.70
2018-07-23T08:03:42.688Z,4.30
2018-07-23T08:06:12.138Z,4.50
2018-07-23T08:08:41.662Z,4.70
2018-07-23T08:11:11.066Z,4.50
2018-07-23T08:13:40.442Z,4.73
2018-07-23T08:16:09.854Z,5.30
2018-07-23T08:18:39.225Z,4.90
2018-07-23T08:21:08.582Z,4.33
2018-07-23T08:23:37.952Z,4.40
2018-07-23T08:26:07.387Z,4.23
2018-07-23T08:28:36.430Z,3.90
2018-07-23T08:31:05.781Z,3.87
2018-07-23T08:33:35.145Z,4.20
2018-07-23T08:36:04.628Z,4.73
2018-07-23T08:38:34.081Z,4.40
2018-07-23T08:41:03.419Z,4.60
2018-07-23T08:43:32.812Z,4.30
2018-07-23T08:46:02.213Z,4.10
2018-07-23T08:48:31.579Z,4.30
2018-07-23T08:51:00.927Z,4.10
2018-07-23T08:53:30.288Z,4.47
2018-07-23T08:55:59.780Z,3.90
2018-07-23T08:58:29.136Z,3.87
2018-07-23T09:00:58.502Z,4.20
2018-07-23T09:03:27.956Z,4.17
2018-07-23T09:05:57.336Z,4.25
2018-07-23T09:08:26.724Z,3.95
2018-07-23T09:10:56.061Z,4.00
2018-07-23T09:13:25.446Z,3.98
2018-07-23T09:15:54.849Z,4.00
2018-07-23T09:18:24.234Z,4.33
2018-07-23T09:20:53.590Z,4.05
2018-07-23T09:23:22.945Z,3.80
2018-07-23T09:25:53.496Z,3.85
2018-07-23T09:28:22.849Z,3.85
2018-07-23T09:30:53.320Z,3.77
2018-07-23T09:33:23.721Z,4.15
2018-07-23T09:35:53.776Z,3.42
2018-07-23T09:38:23.663Z,3.62
2018-07-23T09:40:53.400Z,3.58
2018-07-23T09:43:22.729Z,3.75
2018-07-23T09:45:52.094Z,3.92
2018-07-23T09:48:21.463Z,3.80
2018-07-23T09:50:50.791Z,3.80
2018-07-23T09:53:20.145Z,4.00
2018-07-23T09:55:49.545Z,3.20
2018-07-23T09:58:18.870Z,3.75
2018-07-23T10:00:53.533Z,3.50
2018-07-23T10:03:22.935Z,3.27
2018-07-23T10:05:52.337Z,3.93
2018-07-23T10:08:21.682Z,3.55
2018-07-23T10:10:51.032Z,3.37
2018-07-23T10:13:20.434Z,3.53
2018-07-23T10:15:49.826Z,3.93
2018-07-23T10:18:19.169Z,3.60
2018-07-23T10:20:48.516Z,3.37
2018-07-23T10:23:17.865Z,3.10
2018-07-23T10:25:47.356Z,3.43
2018-07-23T10:28:16.693Z,3.63
2018-07-23T10:30:46.033Z,3.40
2018-07-23T10:33:15.418Z,3.53
2018-07-23T10:35:45.224Z,3.58
2018-07-23T10:38:14.972Z,3.80
2018-07-23T10:40:44.399Z,3.52
2018-07-23T10:43:13.816Z,3.60
2018-07-23T10:45:43.282Z,3.30
2018-07-23T10:48:12.650Z,3.47
2018-07-23T10:50:41.986Z,3.50
2018-07-23T10:53:11.361Z,4.12
2018-07-23T10:55:40.825Z,3.40
2018-07-23T10:58:10.189Z,3.60
2018-07-23T11:00:39.540Z,3.58
2018-07-23T11:03:08.893Z,3.90
2018-07-23T11:05:38.229Z,3.67
2018-07-23T11:08:07.630Z,3.60
2018-07-23T11:10:36.977Z,3.08
2018-07-23T11:13:06.384Z,3.27
2018-07-23T11:15:35.861Z,3.85
2018-07-23T11:18:05.325Z,3.53
2018-07-23T11:20:34.682Z,3.23
2018-07-23T11:23:04.026Z,3.45
2018-07-23T11:25:40.894Z,3.08
2018-07-23T11:28:02.830Z,3.60
2018-07-23T11:30:32.164Z,3.53
2018-07-23T11:33:01.521Z,3.70
2018-07-23T11:35:30.914Z,3.27
2018-07-23T11:38:00.300Z,3.45
2018-07-23T11:40:29.641Z,3.60
2018-07-23T11:42:58.720Z,3.67
2018-07-23T11:45:28.107Z,3.12
2018-07-23T11:47:57.524Z,3.12
2018-07-23T11:50:26.870Z,3.23
2018-07-23T11:52:56.256Z,3.55
2018-07-23T11:55:25.590Z,2.90
2018-07-23T11:57:54.996Z,3.53
2018-07-23T12:00:24.383Z,3.27
2018-07-23T12:02:53.704Z,3.47
2018-07-23T12:05:23.066Z,3.40
2018-07-23T12:07:52.441Z,3.63
2018-07-23T12:10:22.353Z,3.30
2018-07-23T12:12:51.697Z,3.20
2018-07-23T12:15:21.092Z,3.43
2018-07-23T12:17:50.495Z,2.87
2018-07-23T12:20:19.827Z,3.37
2018-07-23T12:22:49.157Z,3.15
2018-07-23T12:25:18.538Z,3.37
2018-07-23T12:27:47.952Z,3.50
2018-07-23T12:30:17.293Z,3.40
2018-07-23T12:32:46.684Z,3.10
2018-07-23T12:35:16.017Z,3.30
2018-07-23T12:37:45.412Z,3.57
2018-07-23T12:40:14.785Z,3.37
2018-07-23T12:42:44.136Z,3.20
2018-07-23T12:45:13.502Z,3.33
2018-07-23T12:47:42.862Z,3.30
2018-07-23T12:50:12.233Z,3.27
2018-07-23T12:52:41.663Z,3.43
2018-07-23T12:55:10.864Z,3.42
2018-07-23T12:57:40.293Z,3.20
2018-07-23T13:00:09.654Z,3.33
2018-07-23T13:02:39.078Z,3.27
2018-07-23T13:05:08.482Z,3.10
2018-07-23T13:07:37.936Z,3.10
2018-07-23T13:10:07.264Z,2.90
2018-07-23T13:12:36.666Z,3.07
2018-07-23T13:15:06.494Z,3.17
2018-07-23T13:17:35.913Z,3.42
2018-07-23T13:20:05.557Z,3.22
2018-07-23T13:22:34.981Z,3.07
2018-07-23T13:25:04.425Z,3.20
2018-07-23T13:27:33.847Z,3.50
2018-07-23T13:30:03.234Z,3.10
2018-07-23T13:32:32.598Z,3.00
2018-07-23T13:35:02.091Z,3.52
2018-07-23T13:37:31.504Z,3.30
2018-07-23T13:40:00.841Z,3.37
2018-07-23T13:42:30.176Z,3.02
2018-07-23T13:44:59.533Z,3.80
2018-07-23T13:47:28.940Z,3.20
2018-07-23T13:49:58.292Z,3.13
2018-07-23T13:52:27.633Z,3.20
2018-07-23T13:54:57.177Z,3.10
2018-07-23T13:57:26.920Z,3.40
2018-07-23T13:59:56.309Z,3.03
2018-07-23T14:02:25.664Z,3.00
2018-07-23T14:04:55.129Z,3.30
2018-07-23T14:07:24.504Z,3.22
2018-07-23T14:09:53.853Z,3.30
2018-07-23T14:12:23.220Z,4.17
2018-07-23T14:14:52.569Z,3.10
2018-07-23T14:17:21.978Z,3.40
2018-07-23T14:19:51.365Z,3.67
2018-07-23T14:22:20.767Z,3.43
2018-07-23T14:24:50.219Z,5.37
2018-07-23T14:27:19.636Z,3.90
2018-07-23T14:29:49.012Z,3.70
2018-07-23T14:32:18.395Z,4.53
2018-07-23T14:34:47.827Z,4.57
2018-07-23T14:37:17.219Z,4.37
2018-07-23T14:39:46.568Z,4.90
2018-07-23T14:42:15.985Z,6.00
2018-07-23T14:44:45.330Z,4.10
2018-07-23T14:47:14.695Z,4.10
2018-07-23T14:49:44.126Z,5.17
2018-07-23T14:52:13.650Z,4.10
2018-07-23T14:54:43.139Z,3.83
2018-07-23T14:57:12.543Z,5.53
2018-07-23T14:59:41.955Z,5.85
2018-07-23T15:02:11.437Z,5.00
2018-07-23T15:04:40.805Z,4.87
2018-07-23T15:07:10.216Z,3.70
2018-07-23T15:09:39.617Z,5.60
2018-07-23T15:12:09.060Z,7.13
2018-07-23T15:14:38.451Z,4.30
2018-07-23T15:17:07.907Z,6.80
2018-07-23T15:19:37.275Z,4.30
2018-07-23T15:22:06.902Z,4.75
2018-07-23T15:24:36.233Z,5.80
2018-07-23T15:27:05.602Z,5.67
2018-07-23T15:29:34.982Z,4.70
2018-07-23T15:32:04.414Z,4.87
2018-07-23T15:34:33.801Z,5.33
2018-07-23T15:37:03.128Z,4.62
2018-07-23T15:39:32.865Z,4.70
2018-07-23T15:42:02.275Z,5.27
2018-07-23T15:44:31.750Z,4.73
2018-07-23T15:47:00.797Z,5.33
2018-07-23T15:49:30.133Z,5.20
2018-07-23T15:51:59.587Z,5.67
2018-07-23T15:54:28.945Z,4.67
2018-07-23T15:56:58.261Z,4.72
2018-07-23T15:59:27.590Z,3.80
2018-07-23T16:01:56.945Z,4.62
2018-07-23T16:04:26.374Z,4.73
2018-07-23T16:06:55.787Z,4.67
2018-07-23T16:09:25.122Z,5.00
2018-07-23T16:11:54.502Z,4.80
2018-07-23T16:14:23.892Z,4.93
2018-07-23T16:16:53.257Z,4.70
2018-07-23T16:19:22.613Z,4.83
2018-07-23T16:21:51.974Z,4.70
2018-07-23T16:24:21.373Z,4.43
2018-07-23T16:26:50.702Z,4.73
2018-07-23T16:29:20.134Z,4.87
2018-07-23T16:31:49.724Z,4.70
2018-07-23T16:34:19.202Z,3.73
2018-07-23T16:36:48.545Z,5.10
2018-07-23T16:39:17.923Z,4.50
2018-07-23T16:41:47.518Z,4.27
2018-07-23T16:44:16.939Z,4.47
2018-07-23T16:46:46.385Z,5.17
2018-07-23T16:49:15.702Z,4.30
2018-07-23T16:51:45.069Z,4.57
2018-07-23T16:54:14.717Z,4.20
2018-07-23T16:56:44.082Z,3.97
2018-07-23T16:59:13.450Z,3.83
2018-07-23T17:01:42.812Z,4.33
2018-07-23T17:04:12.190Z,4.10
2018-07-23T17:06:41.645Z,4.30
2018-07-23T17:09:12.500Z,4.60
2018-07-23T17:11:41.873Z,4.20
2018-07-23T17:14:11.289Z,4.40
2018-07-23T17:16:40.646Z,4.20
2018-07-23T17:19:10.010Z,4.23
2018-07-23T17:21:39.572Z,4.30
2018-07-23T17:24:08.989Z,4.28
2018-07-23T17:26:38.388Z,4.33
2018-07-23T17:29:07.770Z,4.07
2018-07-23T17:31:39.162Z,4.60
2018-07-23T17:34:11.371Z,4.28
2018-07-23T17:36:43.160Z,5.47
2018-07-23T17:39:13.916Z,4.90
2018-07-23T17:41:43.817Z,4.30
2018-07-23T17:44:14.394Z,4.50
2018-07-23T17:46:44.830Z,4.60
2018-07-23T17:49:14.693Z,4.42
2018-07-23T17:51:45.008Z,4.33
2018-07-23T17:54:15.395Z,4.50
2018-07-23T17:56:45.918Z,4.50
2018-07-23T17:59:16.219Z,4.67
2018-07-23T18:01:47.723Z,5.00
2018-07-23T18:04:20.269Z,4.15
2018-07-23T18:06:51.800Z,4.57
2018-07-23T18:09:21.988Z,4.42
2018-07-23T18:11:53.476Z,4.03
2018-07-23T18:14:23.452Z,4.03
2018-07-23T18:16:53.566Z,4.10
2018-07-23T18:19:24.030Z,4.73
2018-07-23T18:21:53.817Z,4.40
2018-07-23T18:24:24.092Z,4.57
2018-07-23T18:26:54.835Z,4.30
2018-07-23T18:29:25.967Z,5.13
2018-07-23T18:31:56.175Z,4.37
2018-07-23T18:34:26.335Z,4.47
2018-07-23T18:36:56.639Z,3.80
2018-07-23T18:39:29.710Z,4.07
2018-07-23T18:42:00.230Z,6.53
2018-07-23T18:44:30.744Z,4.67
2018-07-23T18:47:02.719Z,3.85
2018-07-23T18:49:52.885Z,4.90
2018-07-23T18:52:24.581Z,3.87
2018-07-23T18:54:56.742Z,4.50
2018-07-23T18:57:27.279Z,4.20
2018-07-23T18:59:58.235Z,4.53
2018-07-23T19:02:28.935Z,4.23
2018-07-23T19:04:59.613Z,4.00
2018-07-23T19:07:30.694Z,4.23
2018-07-23T19:10:01.250Z,3.93
2018-07-23T19:12:33.563Z,4.87
2018-07-23T19:15:04.028Z,3.50
2018-07-23T19:17:35.145Z,4.50
2018-07-23T19:20:05.538Z,4.10
2018-07-23T19:22:36.359Z,4.40
2018-07-23T19:25:07.787Z,4.27
2018-07-23T19:27:38.105Z,4.17
2018-07-23T19:30:10.475Z,4.80
2018-07-23T19:32:41.860Z,4.30
2018-07-23T19:35:13.283Z,4.23
2018-07-23T19:37:42.796Z,4.10
2018-07-23T19:40:13.669Z,3.77
2018-07-23T19:42:45.655Z,3.50
2018-07-23T19:45:17.745Z,4.58
2018-07-23T19:47:48.367Z,4.40
2018-07-23T19:50:17.820Z,4.20
2018-07-23T19:52:47.156Z,4.07
2018-07-23T19:55:16.901Z,4.40
2018-07-23T19:57:46.042Z,4.63
2018-07-23T20:00:15.381Z,4.20
2018-07-23T20:02:44.725Z,4.50
2018-07-23T20:05:14.169Z,4.40
2018-07-23T20:07:43.623Z,3.80
2018-07-23T20:10:13.013Z,4.40
2018-07-23T20:12:42.364Z,4.50
2018-07-23T20:15:12.204Z,4.20
2018-07-23T20:17:41.547Z,4.07
2018-07-23T20:20:11.129Z,4.33
2018-07-23T20:22:40.461Z,4.17
2018-07-23T20:25:09.937Z,4.60
2018-07-23T20:27:39.325Z,4.00
2018-07-23T20:30:08.725Z,3.95
2018-07-23T20:32:38.078Z,4.12
2018-07-23T20:35:07.499Z,3.60
2018-07-23T20:37:36.973Z,3.97
2018-07-23T20:40:06.411Z,4.10
2018-07-23T20:42:35.783Z,4.23
2018-07-23T20:45:05.361Z,4.20
2018-07-23T20:47:34.735Z,4.10
2018-07-23T20:50:04.157Z,4.70
2018-07-23T20:52:33.513Z,3.93
2018-07-23T20:55:02.907Z,4.17
2018-07-23T20:57:32.257Z,4.10
2018-07-23T21:00:01.592Z,4.30
2018-07-23T21:02:30.980Z,4.33
2018-07-23T21:05:00.361Z,4.30
2018-07-23T21:07:29.713Z,4.00
2018-07-23T21:09:59.171Z,4.23
2018-07-23T21:12:28.516Z,4.33
2018-07-23T21:14:58.073Z,4.03
2018-07-23T21:17:27.472Z,4.05
2018-07-23T21:19:56.928Z,3.67
2018-07-23T21:22:26.385Z,3.40
2018-07-23T21:24:55.782Z,4.37
2018-07-23T21:27:25.152Z,4.20
2018-07-23T21:29:54.520Z,3.83
2018-07-23T21:32:23.949Z,4.20
2018-07-23T21:34:53.349Z,4.03
2018-07-23T21:37:22.693Z,3.97
2018-07-23T21:39:52.061Z,3.97
2018-07-23T21:42:21.461Z,3.90
2018-07-23T21:44:50.883Z,4.30
2018-07-23T21:47:20.455Z,3.90
2018-07-23T21:49:49.834Z,3.90
2018-07-23T21:52:19.433Z,4.03
2018-07-23T21:54:48.813Z,4.03
2018-07-23T21:57:18.220Z,4.10
2018-07-23T21:59:47.543Z,4.00
2018-07-23T22:02:17.036Z,4.05
2018-07-23T22:04:46.380Z,4.10
2018-07-23T22:07:15.921Z,4.30
2018-07-23T22:09:45.417Z,3.92
2018-07-23T22:12:14.813Z,4.07
2018-07-23T22:14:44.160Z,4.05
2018-07-23T22:17:13.539Z,4.08
2018-07-23T22:19:42.941Z,4.35
2018-07-23T22:22:12.313Z,4.08
2018-07-23T22:24:41.693Z,3.52
2018-07-23T22:27:11.071Z,3.80
2018-07-23T22:29:40.437Z,4.20
2018-07-23T22:32:09.928Z,3.87
2018-07-23T22:34:39.333Z,4.05
2018-07-23T22:37:08.767Z,4.00
2018-07-23T22:39:38.141Z,3.67
2018-07-23T22:42:07.558Z,4.70
2018-07-23T22:44:36.938Z,4.10
2018-07-23T22:47:06.758Z,4.10
2018-07-23T22:49:36.117Z,4.23
2018-07-23T22:52:05.537Z,4.20
2018-07-23T22:54:34.930Z,4.50
2018-07-23T22:57:04.303Z,3.90
2018-07-23T22:59:33.836Z,3.67
2018-07-23T23:02:03.227Z,4.67
2018-07-23T23:04:32.613Z,4.10
2018-07-23T23:07:02.030Z,4.07
2018-07-23T23:09:31.425Z,4.37
2018-07-23T23:12:00.736Z,3.87
2018-07-23T23:14:30.088Z,3.73
2018-07-23T23:17:06.192Z,4.53
2018-07-23T23:19:35.578Z,4.20
2018-07-23T23:22:04.915Z,4.10
2018-07-23T23:24:34.234Z,4.30
2018-07-23T23:27:03.609Z,4.00
2018-07-23T23:29:33.000Z,3.90
2018-07-23T23:32:02.325Z,4.33
2018-07-23T23:34:31.662Z,3.90
2018-07-23T23:37:01.010Z,3.97
2018-07-23T23:39:30.351Z,4.37
2018-07-23T23:41:59.827Z,4.10
2018-07-23T23:44:29.148Z,4.50
2018-07-23T23:46:58.505Z,4.23
2018-07-23T23:49:27.841Z,4.63
2018-07-23T23:51:57.179Z,4.70
2018-07-23T23:54:26.589Z,4.00
2018-07-23T23:56:55.952Z,4.10
2018-07-23T23:59:25.398Z,4.50
